EZY7F EGPH-EGKK
Flight info
| Callsign | EZY7F |
|---|---|
| Flight time | 1h 8m |
| Altitude | 33000 |
| Route | GOSAM P600 FENIK L612 NAVSO DCT KEPAD L151 DISIT |
| Aircraft | A320/M-SDE3FGHIRWY/LB1 |
Departure
| Time | 2026-04-26 12:06 |
|---|---|
| Airport | Edinburgh Airport (EGPH) |
Arrival
| Time | 2026-04-26 13:14 |
|---|---|
| Airport | London Gatwick Airport (EGKK) |
| Time | Latitude | Longitude | Altitude | Speed | Heading |
|---|---|---|---|---|---|
| 2026-04-26 11:42 | 55.94839 | -3.35863 | 117 ft | 0 kts | 208° |
| 2026-04-26 11:52 | 55.94854 | -3.35849 | 116 ft | 4 kts | 209° |
| 2026-04-26 11:52 | 55.94874 | -3.35829 | 112 ft | 2 kts | 207° |
| 2026-04-26 11:53 | 55.94894 | -3.35805 | 112 ft | 4 kts | 234° |
| 2026-04-26 11:53 | 55.94902 | -3.35765 | 114 ft | 4 kts | 285° |
| 2026-04-26 11:53 | 55.94897 | -3.35744 | 113 ft | 0 kts | 298° |
| 2026-04-26 11:56 | 55.94898 | -3.35746 | 113 ft | 2 kts | 298° |
| 2026-04-26 11:57 | 55.94916 | -3.35804 | 114 ft | 7 kts | 300° |
| 2026-04-26 11:57 | 55.94947 | -3.35860 | 114 ft | 6 kts | 330° |
| 2026-04-26 11:57 | 55.94980 | -3.35855 | 113 ft | 4 kts | 26° |
| 2026-04-26 11:57 | 55.95005 | -3.35837 | 114 ft | 3 kts | 22° |
| 2026-04-26 11:58 | 55.95031 | -3.35815 | 114 ft | 7 kts | 27° |
| 2026-04-26 11:58 | 55.95084 | -3.35786 | 116 ft | 8 kts | 340° |
| 2026-04-26 11:58 | 55.95116 | -3.35853 | 114 ft | 7 kts | 300° |
| 2026-04-26 11:58 | 55.95139 | -3.35916 | 115 ft | 6 kts | 314° |
| 2026-04-26 11:59 | 55.95168 | -3.35949 | 114 ft | 5 kts | 330° |
| 2026-04-26 11:59 | 55.95172 | -3.35953 | 113 ft | 0 kts | 330° |
| 2026-04-26 12:00 | 55.95194 | -3.35975 | 112 ft | 7 kts | 332° |
| 2026-04-26 12:00 | 55.95234 | -3.35971 | 112 ft | 5 kts | 32° |
| 2026-04-26 12:00 | 55.95273 | -3.35867 | 114 ft | 16 kts | 60° |
| 2026-04-26 12:01 | 55.95320 | -3.35729 | 114 ft | 11 kts | 58° |
| 2026-04-26 12:01 | 55.95357 | -3.35622 | 115 ft | 9 kts | 59° |
| 2026-04-26 12:01 | 55.95388 | -3.35531 | 114 ft | 8 kts | 58° |
| 2026-04-26 12:01 | 55.95409 | -3.35469 | 112 ft | 5 kts | 59° |
| 2026-04-26 12:02 | 55.95429 | -3.35417 | 114 ft | 7 kts | 45° |
| 2026-04-26 12:02 | 55.95463 | -3.35404 | 113 ft | 8 kts | 349° |
| 2026-04-26 12:02 | 55.95492 | -3.35431 | 115 ft | 0 kts | 328° |
| 2026-04-26 12:02 | 55.95492 | -3.35432 | 115 ft | 0 kts | 328° |
| 2026-04-26 12:03 | 55.95494 | -3.35434 | 115 ft | 2 kts | 328° |
| 2026-04-26 12:03 | 55.95520 | -3.35462 | 114 ft | 5 kts | 330° |
| 2026-04-26 12:03 | 55.95560 | -3.35503 | 112 ft | 8 kts | 329° |
| 2026-04-26 12:03 | 55.95574 | -3.35557 | 113 ft | 4 kts | 246° |
| 2026-04-26 12:04 | 55.95565 | -3.35584 | 113 ft | 0 kts | 239° |
| 2026-04-26 12:05 | 55.95558 | -3.35605 | 113 ft | 11 kts | 239° |
| 2026-04-26 12:05 | 55.95375 | -3.36141 | 110 ft | 89 kts | 239° |
| 2026-04-26 12:05 | 55.94943 | -3.37411 | 111 ft | 147 kts | 238° |
| 2026-04-26 12:05 | 55.94351 | -3.39188 | 320 ft | 174 kts | 240° |
| 2026-04-26 12:06 | 55.93726 | -3.41011 | 1119 ft | 173 kts | 238° |
| 2026-04-26 12:06 | 55.93067 | -3.42859 | 1734 ft | 186 kts | 238° |
| 2026-04-26 12:06 | 55.92344 | -3.44929 | 2110 ft | 207 kts | 239° |
| 2026-04-26 12:06 | 55.91529 | -3.47247 | 2508 ft | 233 kts | 239° |
| 2026-04-26 12:07 | 55.90672 | -3.49826 | 3207 ft | 248 kts | 246° |
| 2026-04-26 12:07 | 55.90238 | -3.52824 | 4178 ft | 253 kts | 261° |
| 2026-04-26 12:07 | 55.89942 | -3.55935 | 5166 ft | 257 kts | 261° |
| 2026-04-26 12:07 | 55.89645 | -3.59123 | 5737 ft | 262 kts | 261° |
| 2026-04-26 12:08 | 55.89350 | -3.62298 | 5973 ft | 259 kts | 261° |
| 2026-04-26 12:08 | 55.89061 | -3.65477 | 5993 ft | 259 kts | 259° |
| 2026-04-26 12:08 | 55.88742 | -3.68641 | 5945 ft | 259 kts | 259° |
| 2026-04-26 12:08 | 55.88520 | -3.70724 | 5923 ft | 258 kts | 258° |
| 2026-04-26 12:09 | 55.88165 | -3.73883 | 5934 ft | 259 kts | 258° |
| 2026-04-26 12:09 | 55.87823 | -3.77033 | 5966 ft | 259 kts | 258° |
| 2026-04-26 12:09 | 55.87491 | -3.80187 | 5991 ft | 259 kts | 259° |
| 2026-04-26 12:09 | 55.87068 | -3.84369 | 6008 ft | 259 kts | 259° |
| 2026-04-26 12:10 | 55.86857 | -3.86506 | 6024 ft | 259 kts | 259° |
| 2026-04-26 12:10 | 55.86549 | -3.89660 | 6066 ft | 259 kts | 259° |
| 2026-04-26 12:10 | 55.86231 | -3.92826 | 6064 ft | 259 kts | 259° |
| 2026-04-26 12:10 | 55.85908 | -3.95990 | 6051 ft | 260 kts | 258° |
| 2026-04-26 12:11 | 55.85584 | -3.99145 | 6045 ft | 260 kts | 258° |
| 2026-04-26 12:11 | 55.85259 | -4.02304 | 6010 ft | 260 kts | 259° |
| 2026-04-26 12:11 | 55.84953 | -4.05473 | 6002 ft | 259 kts | 259° |
| 2026-04-26 12:11 | 55.84655 | -4.08631 | 6027 ft | 259 kts | 258° |
| 2026-04-26 12:12 | 55.84115 | -4.11674 | 5967 ft | 258 kts | 242° |
| 2026-04-26 12:12 | 55.83104 | -4.14299 | 6038 ft | 258 kts | 228° |
| 2026-04-26 12:12 | 55.81774 | -4.16417 | 6011 ft | 259 kts | 216° |
| 2026-04-26 12:12 | 55.80784 | -4.17620 | 6046 ft | 259 kts | 215° |
| 2026-04-26 12:13 | 55.78801 | -4.20061 | 6030 ft | 260 kts | 216° |
| 2026-04-26 12:13 | 55.77321 | -4.21913 | 6791 ft | 259 kts | 216° |
| 2026-04-26 12:13 | 55.75828 | -4.23770 | 7739 ft | 263 kts | 216° |
| 2026-04-26 12:13 | 55.74334 | -4.25646 | 8740 ft | 263 kts | 216° |
| 2026-04-26 12:14 | 55.72695 | -4.27109 | 9714 ft | 267 kts | 198° |
| 2026-04-26 12:14 | 55.70827 | -4.27461 | 10571 ft | 274 kts | 178° |
| 2026-04-26 12:14 | 55.68937 | -4.26658 | 11314 ft | 289 kts | 162° |
| 2026-04-26 12:14 | 55.67092 | -4.24852 | 11564 ft | 317 kts | 152° |
| 2026-04-26 12:15 | 55.65118 | -4.22812 | 11831 ft | 339 kts | 154° |
| 2026-04-26 12:15 | 55.63019 | -4.20752 | 12365 ft | 350 kts | 154° |
| 2026-04-26 12:15 | 55.60858 | -4.18667 | 13056 ft | 356 kts | 155° |
| 2026-04-26 12:15 | 55.58662 | -4.16579 | 13775 ft | 361 kts | 155° |
| 2026-04-26 12:16 | 55.56427 | -4.14453 | 14392 ft | 368 kts | 155° |
| 2026-04-26 12:16 | 55.54193 | -4.12326 | 15091 ft | 370 kts | 154° |
| 2026-04-26 12:16 | 55.51901 | -4.10088 | 15804 ft | 373 kts | 154° |
| 2026-04-26 12:16 | 55.49653 | -4.07868 | 16486 ft | 377 kts | 154° |
| 2026-04-26 12:17 | 55.47355 | -4.05595 | 17137 ft | 380 kts | 154° |
| 2026-04-26 12:17 | 55.45002 | -4.03281 | 17780 ft | 384 kts | 154° |
| 2026-04-26 12:17 | 55.42685 | -4.01021 | 18405 ft | 387 kts | 154° |
| 2026-04-26 12:17 | 55.40313 | -3.98719 | 18965 ft | 391 kts | 154° |
| 2026-04-26 12:18 | 55.37921 | -3.96407 | 19509 ft | 394 kts | 154° |
| 2026-04-26 12:18 | 55.35505 | -3.94078 | 20032 ft | 397 kts | 154° |
| 2026-04-26 12:18 | 55.33075 | -3.91736 | 20567 ft | 400 kts | 154° |
| 2026-04-26 12:18 | 55.30620 | -3.89370 | 21090 ft | 404 kts | 154° |
| 2026-04-26 12:19 | 55.28143 | -3.86987 | 21589 ft | 407 kts | 154° |
| 2026-04-26 12:19 | 55.25649 | -3.84593 | 22086 ft | 410 kts | 154° |
| 2026-04-26 12:19 | 55.23129 | -3.82198 | 22569 ft | 413 kts | 156° |
| 2026-04-26 12:19 | 55.20479 | -3.80285 | 23056 ft | 413 kts | 165° |
| 2026-04-26 12:20 | 55.17745 | -3.78684 | 23531 ft | 416 kts | 165° |
| 2026-04-26 12:20 | 55.14987 | -3.77075 | 23990 ft | 419 kts | 165° |
| 2026-04-26 12:20 | 55.12215 | -3.75459 | 24396 ft | 422 kts | 165° |
| 2026-04-26 12:20 | 55.09423 | -3.73829 | 24803 ft | 424 kts | 165° |
| 2026-04-26 12:21 | 55.06618 | -3.72189 | 25203 ft | 426 kts | 165° |
| 2026-04-26 12:21 | 55.03795 | -3.70538 | 25599 ft | 429 kts | 165° |
| 2026-04-26 12:21 | 55.00960 | -3.68883 | 25984 ft | 431 kts | 165° |
| 2026-04-26 12:21 | 54.98109 | -3.67226 | 26385 ft | 433 kts | 165° |
| 2026-04-26 12:22 | 54.95234 | -3.65564 | 26751 ft | 435 kts | 166° |
| 2026-04-26 12:22 | 54.92354 | -3.63903 | 27120 ft | 438 kts | 166° |
| 2026-04-26 12:22 | 54.89447 | -3.62222 | 27487 ft | 440 kts | 166° |
| 2026-04-26 12:22 | 54.86527 | -3.60529 | 27848 ft | 443 kts | 166° |
| 2026-04-26 12:23 | 54.83604 | -3.58835 | 28211 ft | 445 kts | 166° |
| 2026-04-26 12:23 | 54.80656 | -3.57136 | 28563 ft | 447 kts | 166° |
| 2026-04-26 12:23 | 54.77699 | -3.55438 | 28897 ft | 449 kts | 166° |
| 2026-04-26 12:23 | 54.74720 | -3.53731 | 29222 ft | 451 kts | 166° |
| 2026-04-26 12:24 | 54.71734 | -3.52026 | 29543 ft | 453 kts | 166° |
| 2026-04-26 12:24 | 54.68731 | -3.50318 | 29837 ft | 455 kts | 166° |
| 2026-04-26 12:24 | 54.65706 | -3.48595 | 30160 ft | 458 kts | 166° |
| 2026-04-26 12:25 | 54.59651 | -3.45130 | 30879 ft | 457 kts | 166° |
| 2026-04-26 12:25 | 54.56678 | -3.43431 | 31254 ft | 456 kts | 167° |
| 2026-04-26 12:25 | 54.53667 | -3.41716 | 31631 ft | 455 kts | 167° |
| 2026-04-26 12:25 | 54.50662 | -3.40006 | 32000 ft | 455 kts | 167° |
| 2026-04-26 12:26 | 54.47617 | -3.38279 | 32397 ft | 454 kts | 167° |
| 2026-04-26 12:26 | 54.44665 | -3.36614 | 32759 ft | 453 kts | 167° |
| 2026-04-26 12:26 | 54.41661 | -3.34922 | 33094 ft | 453 kts | 168° |
| 2026-04-26 12:26 | 54.38665 | -3.33234 | 33273 ft | 453 kts | 168° |
| 2026-04-26 12:27 | 54.32649 | -3.29857 | 33300 ft | 451 kts | 168° |
| 2026-04-26 12:27 | 54.26709 | -3.26524 | 33297 ft | 451 kts | 168° |
| 2026-04-26 12:28 | 54.20741 | -3.23195 | 33301 ft | 451 kts | 168° |
| 2026-04-26 12:28 | 54.14768 | -3.19874 | 33299 ft | 451 kts | 168° |
| 2026-04-26 12:29 | 54.08794 | -3.16560 | 33293 ft | 451 kts | 167° |
| 2026-04-26 12:30 | 53.99817 | -3.11591 | 33278 ft | 453 kts | 167° |
| 2026-04-26 12:30 | 53.93820 | -3.08279 | 33260 ft | 454 kts | 167° |
| 2026-04-26 12:31 | 53.84798 | -3.03329 | 33277 ft | 454 kts | 167° |
| 2026-04-26 12:31 | 53.78783 | -3.00040 | 33283 ft | 454 kts | 167° |
| 2026-04-26 12:32 | 53.72773 | -2.96761 | 33287 ft | 454 kts | 167° |
| 2026-04-26 12:33 | 53.63766 | -2.91866 | 33272 ft | 453 kts | 167° |
| 2026-04-26 12:33 | 53.57759 | -2.88610 | 33283 ft | 453 kts | 167° |
| 2026-04-26 12:34 | 53.51755 | -2.85365 | 33286 ft | 453 kts | 167° |
| 2026-04-26 12:34 | 53.45756 | -2.82149 | 33286 ft | 453 kts | 167° |
| 2026-04-26 12:35 | 53.39751 | -2.78930 | 33284 ft | 453 kts | 167° |
| 2026-04-26 12:35 | 53.33748 | -2.75715 | 33287 ft | 453 kts | 167° |
| 2026-04-26 12:36 | 53.27752 | -2.72519 | 33291 ft | 453 kts | 167° |
| 2026-04-26 12:36 | 53.21736 | -2.69323 | 33280 ft | 453 kts | 167° |
| 2026-04-26 12:37 | 53.15726 | -2.66131 | 33285 ft | 453 kts | 167° |
| 2026-04-26 12:37 | 53.09757 | -2.62987 | 33291 ft | 453 kts | 167° |
| 2026-04-26 12:38 | 53.03740 | -2.59817 | 33286 ft | 453 kts | 167° |
| 2026-04-26 12:38 | 52.97735 | -2.56651 | 33271 ft | 453 kts | 166° |
| 2026-04-26 12:39 | 52.91724 | -2.53500 | 33290 ft | 452 kts | 166° |
| 2026-04-26 12:39 | 52.85723 | -2.50369 | 33286 ft | 453 kts | 167° |
| 2026-04-26 12:40 | 52.79843 | -2.46509 | 33286 ft | 460 kts | 154° |
| 2026-04-26 12:40 | 52.74471 | -2.40670 | 33287 ft | 463 kts | 150° |
| 2026-04-26 12:41 | 52.69120 | -2.34790 | 33310 ft | 462 kts | 150° |
| 2026-04-26 12:41 | 52.63757 | -2.28923 | 33319 ft | 462 kts | 149° |
| 2026-04-26 12:41 | 52.61087 | -2.25998 | 33068 ft | 459 kts | 149° |
| 2026-04-26 12:42 | 52.58428 | -2.23082 | 32032 ft | 459 kts | 149° |
| 2026-04-26 12:42 | 52.55764 | -2.20168 | 30912 ft | 461 kts | 149° |
| 2026-04-26 12:42 | 52.53086 | -2.17244 | 29724 ft | 464 kts | 149° |
| 2026-04-26 12:42 | 52.50384 | -2.14299 | 28728 ft | 465 kts | 149° |
| 2026-04-26 12:43 | 52.47708 | -2.11385 | 28074 ft | 458 kts | 149° |
| 2026-04-26 12:43 | 52.45067 | -2.08514 | 27383 ft | 452 kts | 149° |
| 2026-04-26 12:43 | 52.42456 | -2.05679 | 26710 ft | 447 kts | 149° |
| 2026-04-26 12:43 | 52.39868 | -2.02873 | 26054 ft | 443 kts | 149° |
| 2026-04-26 12:44 | 52.37320 | -2.00116 | 25418 ft | 438 kts | 149° |
| 2026-04-26 12:44 | 52.34784 | -1.97377 | 24789 ft | 434 kts | 149° |
| 2026-04-26 12:44 | 52.32274 | -1.94674 | 24162 ft | 430 kts | 149° |
| 2026-04-26 12:44 | 52.29790 | -1.92005 | 23510 ft | 426 kts | 149° |
| 2026-04-26 12:45 | 52.27327 | -1.89361 | 22854 ft | 421 kts | 149° |
| 2026-04-26 12:45 | 52.25711 | -1.87625 | 22414 ft | 418 kts | 149° |
| 2026-04-26 12:45 | 52.23296 | -1.85037 | 21835 ft | 414 kts | 148° |
| 2026-04-26 12:45 | 52.20901 | -1.82473 | 21242 ft | 409 kts | 148° |
| 2026-04-26 12:46 | 52.18535 | -1.79936 | 20664 ft | 405 kts | 148° |
| 2026-04-26 12:46 | 52.16193 | -1.77423 | 20098 ft | 401 kts | 148° |
| 2026-04-26 12:46 | 52.13875 | -1.74943 | 19556 ft | 397 kts | 148° |
| 2026-04-26 12:46 | 52.11573 | -1.72491 | 19034 ft | 393 kts | 148° |
| 2026-04-26 12:47 | 52.09287 | -1.70062 | 18497 ft | 390 kts | 148° |
| 2026-04-26 12:47 | 52.07029 | -1.67666 | 17879 ft | 386 kts | 148° |
| 2026-04-26 12:47 | 52.04783 | -1.65282 | 17314 ft | 383 kts | 148° |
| 2026-04-26 12:47 | 52.02559 | -1.62915 | 16720 ft | 381 kts | 148° |
| 2026-04-26 12:48 | 52.00353 | -1.60569 | 16176 ft | 379 kts | 148° |
| 2026-04-26 12:48 | 51.98152 | -1.58234 | 15641 ft | 376 kts | 148° |
| 2026-04-26 12:48 | 51.95962 | -1.55922 | 15266 ft | 374 kts | 149° |
| 2026-04-26 12:48 | 51.93773 | -1.53619 | 15294 ft | 376 kts | 149° |
| 2026-04-26 12:49 | 51.91575 | -1.51305 | 15299 ft | 377 kts | 149° |
| 2026-04-26 12:49 | 51.89377 | -1.48994 | 15307 ft | 377 kts | 149° |
| 2026-04-26 12:49 | 51.87171 | -1.46673 | 15310 ft | 377 kts | 149° |
| 2026-04-26 12:49 | 51.84970 | -1.44358 | 15172 ft | 377 kts | 149° |
| 2026-04-26 12:50 | 51.82772 | -1.42047 | 14998 ft | 376 kts | 149° |
| 2026-04-26 12:50 | 51.80583 | -1.39753 | 14829 ft | 375 kts | 149° |
| 2026-04-26 12:50 | 51.78389 | -1.37456 | 14646 ft | 375 kts | 149° |
| 2026-04-26 12:50 | 51.76204 | -1.35167 | 14486 ft | 375 kts | 149° |
| 2026-04-26 12:51 | 51.73963 | -1.32821 | 14312 ft | 374 kts | 149° |
| 2026-04-26 12:51 | 51.71799 | -1.30557 | 14156 ft | 374 kts | 149° |
| 2026-04-26 12:51 | 51.69626 | -1.28284 | 13976 ft | 373 kts | 149° |
| 2026-04-26 12:51 | 51.67451 | -1.26017 | 13788 ft | 372 kts | 149° |
| 2026-04-26 12:52 | 51.65271 | -1.23755 | 13594 ft | 371 kts | 149° |
| 2026-04-26 12:52 | 51.63102 | -1.21508 | 13438 ft | 370 kts | 149° |
| 2026-04-26 12:52 | 51.60964 | -1.19293 | 13281 ft | 369 kts | 149° |
| 2026-04-26 12:52 | 51.58790 | -1.17040 | 13120 ft | 368 kts | 149° |
| 2026-04-26 12:53 | 51.56635 | -1.14810 | 12960 ft | 367 kts | 148° |
| 2026-04-26 12:53 | 51.54493 | -1.12597 | 12796 ft | 366 kts | 148° |
| 2026-04-26 12:53 | 51.52373 | -1.10408 | 12652 ft | 365 kts | 148° |
| 2026-04-26 12:53 | 51.50226 | -1.08193 | 12483 ft | 363 kts | 148° |
| 2026-04-26 12:54 | 51.48098 | -1.06002 | 12335 ft | 362 kts | 148° |
| 2026-04-26 12:54 | 51.46003 | -1.03847 | 12184 ft | 362 kts | 148° |
| 2026-04-26 12:54 | 51.43857 | -1.01639 | 12031 ft | 361 kts | 148° |
| 2026-04-26 12:54 | 51.41750 | -0.99476 | 11877 ft | 360 kts | 148° |
| 2026-04-26 12:55 | 51.39672 | -0.97348 | 11719 ft | 359 kts | 149° |
| 2026-04-26 12:55 | 51.37551 | -0.95180 | 11574 ft | 358 kts | 148° |
| 2026-04-26 12:55 | 51.35449 | -0.93031 | 11432 ft | 357 kts | 148° |
| 2026-04-26 12:55 | 51.33354 | -0.90884 | 11280 ft | 357 kts | 149° |
| 2026-04-26 12:56 | 51.31273 | -0.88751 | 11150 ft | 355 kts | 149° |
| 2026-04-26 12:56 | 51.29193 | -0.86622 | 11007 ft | 354 kts | 149° |
| 2026-04-26 12:56 | 51.27119 | -0.84503 | 10856 ft | 353 kts | 149° |
| 2026-04-26 12:56 | 51.25047 | -0.82390 | 10705 ft | 352 kts | 149° |
| 2026-04-26 12:57 | 51.22982 | -0.80288 | 10565 ft | 351 kts | 148° |
| 2026-04-26 12:57 | 51.20921 | -0.78195 | 10413 ft | 351 kts | 148° |
| 2026-04-26 12:57 | 51.18880 | -0.76126 | 10303 ft | 339 kts | 149° |
| 2026-04-26 12:58 | 51.15114 | -0.72300 | 10324 ft | 304 kts | 149° |
| 2026-04-26 12:58 | 51.13371 | -0.70536 | 10316 ft | 292 kts | 149° |
| 2026-04-26 12:58 | 51.11685 | -0.68838 | 10326 ft | 290 kts | 149° |
| 2026-04-26 12:58 | 51.09984 | -0.67128 | 10324 ft | 289 kts | 148° |
| 2026-04-26 12:59 | 51.08289 | -0.65419 | 10122 ft | 287 kts | 149° |
| 2026-04-26 12:59 | 51.06630 | -0.63660 | 9824 ft | 286 kts | 142° |
| 2026-04-26 12:59 | 51.05229 | -0.61410 | 9652 ft | 287 kts | 128° |
| 2026-04-26 12:59 | 51.04199 | -0.58696 | 9470 ft | 288 kts | 117° |
| 2026-04-26 13:00 | 51.03314 | -0.55839 | 9277 ft | 287 kts | 117° |
| 2026-04-26 13:00 | 51.02428 | -0.53004 | 9097 ft | 286 kts | 118° |
| 2026-04-26 13:00 | 51.01540 | -0.50173 | 8914 ft | 286 kts | 117° |
| 2026-04-26 13:00 | 51.00654 | -0.47348 | 8739 ft | 285 kts | 118° |
| 2026-04-26 13:01 | 50.99778 | -0.44563 | 8554 ft | 283 kts | 118° |
| 2026-04-26 13:01 | 50.98889 | -0.41749 | 8379 ft | 283 kts | 117° |
| 2026-04-26 13:01 | 50.98010 | -0.38960 | 8201 ft | 282 kts | 118° |
| 2026-04-26 13:01 | 50.97135 | -0.36188 | 8035 ft | 281 kts | 118° |
| 2026-04-26 13:02 | 50.96261 | -0.33421 | 7855 ft | 280 kts | 117° |
| 2026-04-26 13:02 | 50.95393 | -0.30668 | 7682 ft | 279 kts | 117° |
| 2026-04-26 13:02 | 50.94526 | -0.27927 | 7505 ft | 278 kts | 117° |
| 2026-04-26 13:02 | 50.93656 | -0.25192 | 7341 ft | 277 kts | 117° |
| 2026-04-26 13:03 | 50.92787 | -0.22459 | 7163 ft | 276 kts | 117° |
| 2026-04-26 13:03 | 50.91925 | -0.19753 | 6999 ft | 275 kts | 117° |
| 2026-04-26 13:03 | 50.91061 | -0.17049 | 6825 ft | 273 kts | 117° |
| 2026-04-26 13:03 | 50.90219 | -0.14412 | 6653 ft | 263 kts | 117° |
| 2026-04-26 13:04 | 50.89420 | -0.11904 | 6469 ft | 253 kts | 117° |
| 2026-04-26 13:04 | 50.88642 | -0.09452 | 6293 ft | 245 kts | 116° |
| 2026-04-26 13:04 | 50.88217 | -0.06857 | 6106 ft | 239 kts | 92° |
| 2026-04-26 13:04 | 50.88459 | -0.04313 | 5929 ft | 238 kts | 70° |
| 2026-04-26 13:05 | 50.89305 | -0.02065 | 5743 ft | 239 kts | 47° |
| 2026-04-26 13:05 | 50.90651 | -0.00490 | 5565 ft | 239 kts | 24° |
| 2026-04-26 13:05 | 50.92259 | 0.00130 | 5380 ft | 240 kts | 2° |
| 2026-04-26 13:05 | 50.93899 | -0.00285 | 5207 ft | 240 kts | 338° |
| 2026-04-26 13:06 | 50.95302 | -0.01673 | 5038 ft | 239 kts | 315° |
| 2026-04-26 13:06 | 50.96257 | -0.03811 | 4855 ft | 238 kts | 292° |
| 2026-04-26 13:06 | 50.96723 | -0.06338 | 4652 ft | 238 kts | 282° |
| 2026-04-26 13:06 | 50.97089 | -0.08871 | 4487 ft | 238 kts | 281° |
| 2026-04-26 13:07 | 50.97446 | -0.11467 | 4322 ft | 237 kts | 281° |
| 2026-04-26 13:07 | 50.97796 | -0.14047 | 4165 ft | 241 kts | 280° |
| 2026-04-26 13:07 | 50.98151 | -0.16640 | 4021 ft | 240 kts | 281° |
| 2026-04-26 13:07 | 50.98663 | -0.19191 | 3864 ft | 243 kts | 295° |
| 2026-04-26 13:08 | 50.99575 | -0.21403 | 3727 ft | 242 kts | 307° |
| 2026-04-26 13:08 | 51.00604 | -0.23515 | 3570 ft | 240 kts | 308° |
| 2026-04-26 13:08 | 51.01617 | -0.25609 | 3416 ft | 238 kts | 307° |
| 2026-04-26 13:08 | 51.02620 | -0.27697 | 3257 ft | 237 kts | 307° |
| 2026-04-26 13:09 | 51.03618 | -0.29782 | 3107 ft | 237 kts | 307° |
| 2026-04-26 13:09 | 51.04614 | -0.31860 | 2987 ft | 238 kts | 307° |
| 2026-04-26 13:09 | 51.05620 | -0.33964 | 2979 ft | 238 kts | 307° |
| 2026-04-26 13:09 | 51.06613 | -0.36046 | 2979 ft | 232 kts | 307° |
| 2026-04-26 13:10 | 51.07571 | -0.38050 | 2979 ft | 223 kts | 307° |
| 2026-04-26 13:10 | 51.08555 | -0.39866 | 2964 ft | 210 kts | 326° |
| 2026-04-26 13:10 | 51.09858 | -0.40544 | 2991 ft | 188 kts | 2° |
| 2026-04-26 13:10 | 51.11082 | -0.40084 | 2762 ft | 180 kts | 32° |
| 2026-04-26 13:11 | 51.11936 | -0.38780 | 2513 ft | 163 kts | 62° |
| 2026-04-26 13:11 | 51.12285 | -0.37190 | 2330 ft | 144 kts | 80° |
| 2026-04-26 13:11 | 51.12499 | -0.35669 | 2134 ft | 139 kts | 79° |
| 2026-04-26 13:11 | 51.12704 | -0.34210 | 1949 ft | 133 kts | 81° |
| 2026-04-26 13:12 | 51.12906 | -0.32769 | 1751 ft | 134 kts | 81° |
| 2026-04-26 13:12 | 51.13109 | -0.31319 | 1588 ft | 133 kts | 81° |
| 2026-04-26 13:12 | 51.13310 | -0.29875 | 1409 ft | 133 kts | 81° |
| 2026-04-26 13:12 | 51.13508 | -0.28452 | 1221 ft | 131 kts | 83° |
| 2026-04-26 13:13 | 51.13703 | -0.27047 | 1042 ft | 130 kts | 81° |
| 2026-04-26 13:13 | 51.13901 | -0.25641 | 857 ft | 131 kts | 81° |
| 2026-04-26 13:13 | 51.14106 | -0.24237 | 699 ft | 132 kts | 78° |
| 2026-04-26 13:13 | 51.14289 | -0.22801 | 530 ft | 132 kts | 77° |
| 2026-04-26 13:14 | 51.14490 | -0.21375 | 333 ft | 131 kts | 78° |
| 2026-04-26 13:14 | 51.14685 | -0.19976 | 216 ft | 123 kts | 78° |
| 2026-04-26 13:14 | 51.14834 | -0.18878 | 206 ft | 76 kts | 77° |
| 2026-04-26 13:14 | 51.14915 | -0.18321 | 206 ft | 28 kts | 81° |
| 2026-04-26 13:15 | 51.14962 | -0.18023 | 213 ft | 26 kts | 68° |
| 2026-04-26 13:15 | 51.15041 | -0.17827 | 210 ft | 17 kts | 51° |
| 2026-04-26 13:15 | 51.15086 | -0.17755 | 206 ft | 0 kts | 28° |
| 2026-04-26 13:16 | 51.15102 | -0.17755 | 205 ft | 0 kts | 354° |
| 2026-04-26 13:17 | 51.15197 | -0.17771 | 210 ft | 10 kts | 352° |
| 2026-04-26 13:17 | 51.15256 | -0.17748 | 208 ft | 9 kts | 54° |
| 2026-04-26 13:18 | 51.15280 | -0.17601 | 204 ft | 5 kts | 78° |
| 2026-04-26 13:18 | 51.15287 | -0.17548 | 204 ft | 4 kts | 77° |
| 2026-04-26 13:18 | 51.15295 | -0.17483 | 204 ft | 3 kts | 79° |
| 2026-04-26 13:19 | 51.15299 | -0.17449 | 206 ft | 7 kts | 81° |
| 2026-04-26 13:19 | 51.15315 | -0.17384 | 211 ft | 10 kts | 48° |